Terminal Aerodrome Forecast
Issued by NWS

Current Version | Previous Version | Text Only | Print | Product List | Glossary On
Versions: 1 2 3 4 5 6 7 8 9 10 11 12 13 14 15 16 17 18 19 20 21 22 23 24
000
FTUS46 KEKA 020531
TAFCEC
TAF
KCEC 020531Z 0206/0306 15010KT 5SM BR OVC004
     FM020900 15009KT 1SM BR OVC003
     FM021600 19006KT 4SM BR BKN005
     FM021800 19010KT P6SM SCT006
     FM030400 15006KT P6SM BKN005=

USA.gov is the U.S. government's official web portal to all federal, state and local government web resources and services.